createdAt,value
2023-09-26T00:00:00.444Z,101683.06
2023-09-26T00:03:46.206Z,101684.79
2023-09-26T00:07:14.056Z,101683.33
2023-09-26T00:10:41.058Z,101682.38
2023-09-26T00:14:07.751Z,101680.86
2023-09-26T00:17:34.114Z,101678.73
2023-09-26T00:21:00.183Z,101678.05
2023-09-26T00:24:26.413Z,101673.74
2023-09-26T00:27:54.121Z,101668.58
2023-09-26T00:31:20.718Z,101667.90
2023-09-26T00:34:47.257Z,101663.54
2023-09-26T00:38:13.701Z,101669.05
2023-09-26T00:41:40.187Z,101667.46
2023-09-26T00:45:07.726Z,101669.06
2023-09-26T00:48:34.675Z,101670.15
2023-09-26T00:52:02.748Z,101667.61
2023-09-26T00:55:29.200Z,101669.94
2023-09-26T00:58:55.410Z,101667.70
2023-09-26T01:02:23.497Z,101667.77
2023-09-26T01:05:49.464Z,101669.48
2023-09-26T01:09:16.301Z,101664.73
2023-09-26T01:12:42.853Z,101667.55
2023-09-26T01:16:22.985Z,101663.14
2023-09-26T01:19:49.370Z,101663.94
2023-09-26T01:23:17.138Z,101663.52
2023-09-26T01:26:42.959Z,101663.89
2023-09-26T01:30:12.488Z,101666.71
2023-09-26T01:33:39.093Z,101665.50
2023-09-26T01:37:05.127Z,101669.36
2023-09-26T01:40:31.357Z,101668.42
2023-09-26T01:43:57.121Z,101663.71
2023-09-26T01:47:34.764Z,101665.91
2023-09-26T01:51:00.470Z,101664.66
2023-09-26T01:54:26.189Z,101654.81
2023-09-26T01:57:53.290Z,101655.95
2023-09-26T02:01:19.850Z,101659.71
2023-09-26T02:04:45.746Z,101658.27
2023-09-26T02:08:11.872Z,101654.39
2023-09-26T02:11:37.887Z,101654.27
2023-09-26T02:15:06.075Z,101653.08
2023-09-26T02:18:32.309Z,101654.09
2023-09-26T02:21:58.680Z,101651.88
2023-09-26T02:25:25.691Z,101648.77
2023-09-26T02:28:51.833Z,101650.41
2023-09-26T02:32:18.031Z,101649.71
2023-09-26T02:35:44.325Z,101643.94
2023-09-26T02:39:10.545Z,101644.05
2023-09-26T02:42:38.179Z,101646.13
2023-09-26T02:46:04.226Z,101646.64
2023-09-26T02:49:30.536Z,101646.02
2023-09-26T02:52:56.858Z,101643.23
2023-09-26T02:56:22.752Z,101640.77
2023-09-26T02:59:49.590Z,101639.23
2023-09-26T03:03:15.702Z,101636.58
2023-09-26T03:06:41.631Z,101633.46
2023-09-26T03:10:12.352Z,101629.20
2023-09-26T03:13:39.183Z,101631.17
2023-09-26T03:17:07.103Z,101629.90
2023-09-26T03:20:33.116Z,101633.41
2023-09-26T03:23:58.903Z,101630.88
2023-09-26T03:27:25.750Z,101627.04
2023-09-26T03:30:51.648Z,101626.11
2023-09-26T03:34:17.532Z,101624.02
2023-09-26T03:37:43.758Z,101621.23
2023-09-26T03:41:09.952Z,101622.20
2023-09-26T03:44:36.017Z,101621.19
2023-09-26T03:48:02.361Z,101621.27
2023-09-26T03:51:28.612Z,101618.42
2023-09-26T03:54:55.020Z,101616.45
2023-09-26T03:58:21.283Z,101616.02
2023-09-26T04:01:48.852Z,101620.27
2023-09-26T04:05:14.999Z,101617.25
2023-09-26T04:08:41.870Z,101615.00
2023-09-26T04:12:09.117Z,101615.20
2023-09-26T04:15:38.416Z,101619.52
2023-09-26T04:19:04.549Z,101618.12
2023-09-26T04:22:30.700Z,101613.10
2023-09-26T04:25:56.669Z,101613.27
2023-09-26T04:29:22.607Z,101618.22
2023-09-26T04:32:49.144Z,101618.79
2023-09-26T04:36:15.154Z,101616.77
2023-09-26T04:39:40.910Z,101610.21
2023-09-26T04:43:08.119Z,101612.30
2023-09-26T04:46:34.301Z,101610.68
2023-09-26T04:50:00.362Z,101609.83
2023-09-26T04:53:26.326Z,101619.43
2023-09-26T04:56:52.211Z,101618.73
2023-09-26T05:00:21.307Z,101623.40
2023-09-26T05:03:47.992Z,101624.33
2023-09-26T05:07:13.870Z,101623.55
2023-09-26T05:10:41.676Z,101627.17
2023-09-26T05:14:07.739Z,101623.46
2023-09-26T05:17:34.060Z,101624.98
2023-09-26T05:21:00.463Z,101622.52
2023-09-26T05:24:27.009Z,101622.93
2023-09-26T05:27:53.243Z,101623.05
2023-09-26T05:31:22.176Z,101626.77
2023-09-26T05:34:49.553Z,101631.55
2023-09-26T05:38:15.482Z,101637.59
2023-09-26T05:41:41.911Z,101634.70
2023-09-26T05:45:10.064Z,101633.80
2023-09-26T05:48:37.266Z,101636.78
2023-09-26T05:52:03.852Z,101638.39
2023-09-26T05:55:30.271Z,101633.05
2023-09-26T05:58:56.235Z,101628.19
2023-09-26T06:02:22.380Z,101633.59
2023-09-26T06:05:49.392Z,101634.86
2023-09-26T06:09:15.444Z,101629.42
2023-09-26T06:12:41.173Z,101630.15
2023-09-26T06:16:09.610Z,101629.76
2023-09-26T06:19:35.715Z,101629.20
2023-09-26T06:23:02.538Z,101623.13
2023-09-26T06:26:29.704Z,101621.98
2023-09-26T06:29:55.834Z,101616.33
2023-09-26T06:33:21.979Z,101612.71
2023-09-26T06:36:49.121Z,101612.35
2023-09-26T06:40:15.734Z,101611.81
2023-09-26T06:43:41.895Z,101610.70
2023-09-26T06:47:07.938Z,101607.98
2023-09-26T06:50:34.366Z,101606.75
2023-09-26T06:54:00.250Z,101602.60
2023-09-26T06:57:27.992Z,101602.13
2023-09-26T07:00:56.524Z,101603.48
2023-09-26T07:04:22.799Z,101604.64
2023-09-26T07:07:48.921Z,101604.08
2023-09-26T07:11:15.403Z,101606.08
2023-09-26T07:14:41.810Z,101605.09
2023-09-26T07:18:11.495Z,101604.44
2023-09-26T07:21:37.897Z,101604.52
2023-09-26T07:25:06.013Z,101601.27
2023-09-26T07:28:33.270Z,101593.27
2023-09-26T07:31:59.757Z,101591.42
2023-09-26T07:35:27.251Z,101589.84
2023-09-26T07:38:53.640Z,101591.88
2023-09-26T07:42:19.781Z,101593.77
2023-09-26T07:45:46.109Z,101588.08
2023-09-26T07:49:12.022Z,101589.44
2023-09-26T07:52:38.347Z,101585.89
2023-09-26T07:56:04.426Z,101588.69
2023-09-26T07:59:30.457Z,101587.96
2023-09-26T08:02:56.214Z,101591.59
2023-09-26T08:06:23.317Z,101591.61
2023-09-26T08:09:49.877Z,101589.52
2023-09-26T08:13:16.521Z,101589.06
2023-09-26T08:16:42.842Z,101593.76
2023-09-26T08:20:11.324Z,101596.40
2023-09-26T08:23:37.542Z,101592.71
2023-09-26T08:27:03.154Z,101592.32
2023-09-26T08:30:29.643Z,101594.67
2023-09-26T08:33:56.208Z,101594.27
2023-09-26T08:37:24.876Z,101592.92
2023-09-26T08:40:56.278Z,101592.32
2023-09-26T08:44:22.772Z,101589.29
2023-09-26T08:47:50.890Z,101589.39
2023-09-26T08:51:17.211Z,101589.09
2023-09-26T08:54:43.283Z,101594.22
2023-09-26T08:58:10.864Z,101585.86
2023-09-26T09:01:37.230Z,101588.66
2023-09-26T09:05:03.470Z,101587.80
2023-09-26T09:08:29.828Z,101584.02
2023-09-26T09:11:55.706Z,101581.61
2023-09-26T09:15:26.057Z,101583.59
2023-09-26T09:18:58.870Z,101578.70
2023-09-26T09:22:24.459Z,101568.97
2023-09-26T09:25:51.633Z,101568.65
2023-09-26T09:29:23.444Z,101568.09
2023-09-26T09:32:50.192Z,101564.12
2023-09-26T09:36:16.953Z,101562.14
2023-09-26T09:39:42.766Z,101559.27
2023-09-26T09:43:09.465Z,101557.66
2023-09-26T09:46:40.459Z,101556.09
2023-09-26T09:50:09.413Z,101557.70
2023-09-26T09:53:38.018Z,101553.50
2023-09-26T09:57:11.381Z,101552.91
2023-09-26T10:00:40.744Z,101558.59
2023-09-26T10:04:09.433Z,101551.72
2023-09-26T10:07:37.705Z,101549.07
2023-09-26T10:11:09.543Z,101542.54
2023-09-26T10:14:35.992Z,101547.21
2023-09-26T10:18:08.210Z,101548.59
2023-09-26T10:21:34.464Z,101545.05
2023-09-26T10:25:02.761Z,101545.42
2023-09-26T10:28:29.336Z,101543.70
2023-09-26T10:31:59.510Z,101541.88
2023-09-26T10:35:30.206Z,101535.27
2023-09-26T10:39:03.985Z,101547.25
2023-09-26T10:43:14.914Z,101541.39
2023-09-26T10:46:20.693Z,101538.35
2023-09-26T10:49:47.238Z,101533.80
2023-09-26T10:53:15.036Z,101534.85
2023-09-26T10:56:50.116Z,101532.83
2023-09-26T11:00:20.651Z,101532.52
2023-09-26T11:03:46.911Z,101531.77
2023-09-26T11:07:13.806Z,101530.39
2023-09-26T11:10:40.281Z,101530.21
2023-09-26T11:14:07.604Z,101529.22
2023-09-26T11:17:34.989Z,101527.56
2023-09-26T11:21:23.978Z,101529.22
2023-09-26T11:24:52.012Z,101527.63
2023-09-26T11:28:19.214Z,101529.15
2023-09-26T11:31:47.053Z,101528.40
2023-09-26T11:35:13.018Z,101523.52
2023-09-26T11:38:49.089Z,101520.87
2023-09-26T11:42:18.957Z,101520.26
2023-09-26T11:45:45.463Z,101517.58
2023-09-26T11:49:11.698Z,101511.78
2023-09-26T11:52:37.759Z,101509.55
2023-09-26T11:56:07.478Z,101509.05
2023-09-26T11:59:34.917Z,101503.43
2023-09-26T12:03:03.156Z,101505.97
2023-09-26T12:06:29.264Z,101506.38
2023-09-26T12:09:55.339Z,101505.35
2023-09-26T12:13:21.680Z,101506.56
2023-09-26T12:16:54.624Z,101507.20
2023-09-26T12:20:25.722Z,101504.01
2023-09-26T12:23:53.031Z,101509.23
2023-09-26T12:27:18.825Z,101509.05
2023-09-26T12:30:45.346Z,101506.81
2023-09-26T12:34:11.483Z,101503.52
2023-09-26T12:37:37.660Z,101505.75
2023-09-26T12:41:04.402Z,101501.48
2023-09-26T12:44:30.564Z,101499.58
2023-09-26T12:47:56.713Z,101497.70
2023-09-26T12:51:22.918Z,101492.83
2023-09-26T12:54:50.216Z,101487.77
2023-09-26T12:58:16.340Z,101485.82
2023-09-26T13:01:43.099Z,101480.70
2023-09-26T13:05:10.135Z,101477.92
2023-09-26T13:08:35.759Z,101473.23
2023-09-26T13:12:01.828Z,101472.80
2023-09-26T13:15:29.710Z,101468.06
2023-09-26T13:18:57.055Z,101468.10
2023-09-26T13:22:23.277Z,101466.70
2023-09-26T13:25:49.792Z,101467.36
2023-09-26T13:29:15.966Z,101462.27
2023-09-26T13:32:41.863Z,101460.54
2023-09-26T13:36:08.593Z,101456.42
2023-09-26T13:39:34.477Z,101451.83
2023-09-26T13:43:00.889Z,101453.50
2023-09-26T13:46:27.413Z,101450.90
2023-09-26T13:49:54.009Z,101447.20
2023-09-26T13:53:20.252Z,101447.66
2023-09-26T13:56:48.880Z,101446.80
2023-09-26T14:00:16.805Z,101449.25
2023-09-26T14:03:43.437Z,101449.63
2023-09-26T14:07:09.354Z,101445.84
2023-09-26T14:10:37.494Z,101446.06
2023-09-26T14:14:03.769Z,101442.09
2023-09-26T14:17:29.748Z,101447.17
2023-09-26T14:20:57.320Z,101443.05
2023-09-26T14:24:23.690Z,101445.07
2023-09-26T14:27:51.208Z,101445.96
2023-09-26T14:31:20.662Z,101444.51
2023-09-26T14:34:50.323Z,101440.38
2023-09-26T14:38:18.336Z,101442.55
2023-09-26T14:41:43.984Z,101442.14
2023-09-26T14:45:11.382Z,101443.22
2023-09-26T14:48:37.608Z,101436.41
2023-09-26T14:52:03.959Z,101433.86
2023-09-26T14:55:30.485Z,101432.01
2023-09-26T14:58:56.515Z,101429.17
2023-09-26T15:02:22.660Z,101427.50
2023-09-26T15:05:51.262Z,101426.28
2023-09-26T15:09:17.817Z,101422.34
2023-09-26T15:12:44.468Z,101421.50
2023-09-26T15:16:10.752Z,101417.97
2023-09-26T15:19:37.535Z,101414.10
2023-09-26T15:23:04.157Z,101411.50
2023-09-26T15:26:30.121Z,101408.05
2023-09-26T15:29:56.350Z,101409.65
2023-09-26T15:33:22.715Z,101406.46
2023-09-26T15:36:49.063Z,101406.13
2023-09-26T15:40:15.603Z,101406.88
2023-09-26T15:43:42.145Z,101404.58
2023-09-26T15:47:09.104Z,101403.68
2023-09-26T15:50:35.645Z,101407.31
2023-09-26T15:54:01.887Z,101411.59
2023-09-26T15:57:28.761Z,101412.74
2023-09-26T16:00:55.269Z,101414.54
2023-09-26T16:04:21.613Z,101414.93
2023-09-26T16:07:47.950Z,101416.59
2023-09-26T16:11:14.107Z,101423.58
2023-09-26T16:14:41.564Z,101420.12
2023-09-26T16:18:08.996Z,101418.23
2023-09-26T16:21:35.609Z,101412.95
2023-09-26T16:25:01.534Z,101416.66
2023-09-26T16:28:27.749Z,101418.20
2023-09-26T16:31:53.738Z,101417.41
2023-09-26T16:35:20.123Z,101416.43
2023-09-26T16:38:46.689Z,101416.56
2023-09-26T16:42:12.963Z,101413.63
2023-09-26T16:45:38.838Z,101419.95
2023-09-26T16:49:04.865Z,101420.56
2023-09-26T16:52:31.761Z,101421.87
2023-09-26T16:55:58.007Z,101422.57
2023-09-26T16:59:24.429Z,101423.23
2023-09-26T17:02:50.922Z,101416.03
2023-09-26T17:06:18.306Z,101419.23
2023-09-26T17:09:44.652Z,101420.52
2023-09-26T17:13:11.123Z,101421.04
2023-09-26T17:16:37.556Z,101422.60
2023-09-26T17:20:06.191Z,101420.73
2023-09-26T17:23:32.090Z,101420.95
2023-09-26T17:26:58.068Z,101419.92
2023-09-26T17:30:27.233Z,101415.63
2023-09-26T17:33:54.077Z,101413.52
2023-09-26T17:37:21.739Z,101418.52
2023-09-26T17:40:47.854Z,101418.83
2023-09-26T17:44:14.174Z,101421.44
2023-09-26T17:47:41.044Z,101422.51
2023-09-26T17:51:12.204Z,101424.84
2023-09-26T17:54:39.115Z,101421.29
2023-09-26T17:58:08.733Z,101422.77
2023-09-26T18:01:39.195Z,101422.40
2023-09-26T18:05:06.495Z,101422.38
2023-09-26T18:08:33.653Z,101418.86
2023-09-26T18:12:00.899Z,101423.59
2023-09-26T18:15:28.504Z,101425.05
2023-09-26T18:18:54.827Z,101427.13
2023-09-26T18:22:25.320Z,101429.69
2023-09-26T18:25:51.542Z,101428.40
2023-09-26T18:29:18.685Z,101430.64
2023-09-26T18:32:45.146Z,101432.65
2023-09-26T18:36:12.145Z,101435.02
2023-09-26T18:39:39.283Z,101432.67
2023-09-26T18:43:06.442Z,101433.55
2023-09-26T18:46:32.736Z,101433.56
2023-09-26T18:49:59.071Z,101434.96
2023-09-26T18:53:25.745Z,101434.48
2023-09-26T18:56:54.766Z,101434.97
2023-09-26T19:00:21.652Z,101432.23
2023-09-26T19:03:47.730Z,101430.95
2023-09-26T19:07:14.158Z,101433.22
2023-09-26T19:10:43.100Z,101429.13
2023-09-26T19:14:08.871Z,101431.45
2023-09-26T19:17:35.087Z,101429.33
2023-09-26T19:21:01.533Z,101427.94
2023-09-26T19:24:27.891Z,101426.09
2023-09-26T19:27:56.204Z,101422.03
2023-09-26T19:31:23.505Z,101421.78
2023-09-26T19:34:50.781Z,101423.59
2023-09-26T19:38:18.059Z,101420.55
2023-09-26T19:41:44.512Z,101421.19
2023-09-26T19:45:14.561Z,101417.19
2023-09-26T19:48:40.412Z,101417.45
2023-09-26T19:52:07.102Z,101418.40
2023-09-26T19:55:33.308Z,101417.31
2023-09-26T19:58:59.668Z,101413.09
2023-09-26T20:02:26.171Z,101411.85
2023-09-26T20:05:52.447Z,101410.67
2023-09-26T20:09:18.847Z,101408.22
2023-09-26T20:12:44.661Z,101405.67
2023-09-26T20:16:10.840Z,101408.20
2023-09-26T20:19:37.582Z,101414.16
2023-09-26T20:23:07.179Z,101418.05
2023-09-26T20:26:33.469Z,101418.76
2023-09-26T20:29:59.797Z,101423.19
2023-09-26T20:33:25.916Z,101422.46
2023-09-26T20:36:52.361Z,101421.68
2023-09-26T20:40:19.041Z,101424.02
2023-09-26T20:43:45.004Z,101423.94
2023-09-26T20:47:11.346Z,101422.55
2023-09-26T20:50:37.614Z,101426.29
2023-09-26T20:54:04.259Z,101425.95
2023-09-26T20:57:30.517Z,101425.35
2023-09-26T21:00:56.626Z,101431.02
2023-09-26T21:04:23.116Z,101431.36
2023-09-26T21:07:49.128Z,101434.00
2023-09-26T21:11:15.102Z,101433.57
2023-09-26T21:14:43.852Z,101429.90
2023-09-26T21:18:10.194Z,101432.11
2023-09-26T21:21:36.260Z,101433.78
2023-09-26T21:25:02.852Z,101435.08
2023-09-26T21:28:29.036Z,101433.29
2023-09-26T21:31:55.528Z,101430.80
2023-09-26T21:35:22.460Z,101431.95
2023-09-26T21:38:49.232Z,101430.94
2023-09-26T21:42:15.673Z,101432.44
2023-09-26T21:45:41.643Z,101429.24
2023-09-26T21:49:08.365Z,101431.81
2023-09-26T21:52:35.285Z,101427.34
2023-09-26T21:56:01.076Z,101425.96
2023-09-26T21:59:33.040Z,101425.04
2023-09-26T22:03:03.272Z,101425.03
2023-09-26T22:06:29.450Z,101420.34
2023-09-26T22:09:55.589Z,101419.48
2023-09-26T22:13:28.184Z,101419.23
2023-09-26T22:16:54.131Z,101418.05
2023-09-26T22:20:23.362Z,101413.87
2023-09-26T22:23:50.868Z,101412.77
2023-09-26T22:27:17.215Z,101416.52
2023-09-26T22:30:43.508Z,101414.75
2023-09-26T22:34:09.852Z,101409.73
2023-09-26T22:37:36.762Z,101410.69
2023-09-26T22:41:03.049Z,101410.81
2023-09-26T22:44:32.241Z,101406.39
2023-09-26T22:47:58.427Z,101406.06
2023-09-26T22:51:25.127Z,101402.11
2023-09-26T22:54:51.012Z,101400.58
2023-09-26T22:58:16.821Z,101397.65
2023-09-26T23:01:43.102Z,101391.70
2023-09-26T23:05:10.395Z,101393.70
2023-09-26T23:08:36.643Z,101396.42
2023-09-26T23:12:02.801Z,101394.66
2023-09-26T23:15:28.921Z,101392.17
2023-09-26T23:18:55.268Z,101397.36
2023-09-26T23:22:21.547Z,101395.20
2023-09-26T23:25:47.533Z,101395.15
2023-09-26T23:29:14.130Z,101395.76
2023-09-26T23:32:42.743Z,101394.02
2023-09-26T23:36:13.919Z,101391.93
2023-09-26T23:39:39.965Z,101386.43
2023-09-26T23:43:07.529Z,101387.16
2023-09-26T23:46:34.560Z,101379.75
2023-09-26T23:50:02.717Z,101378.11
2023-09-26T23:53:29.885Z,101374.80
2023-09-26T23:56:56.109Z,101368.05
